Terminal Aerodrome Forecast
Issued by NWS

Home | Current Version | Previous Version | Text Only | Print | Product List | Glossary On
Versions: 1 2 3 4 5 6 7 8 9 10 11 12 13 14 15 16 17 18 19 20 21 22 23 24 25 26 27 28 29
258
FTUS42 KJAX 242053 AAB
TAFVQQ
TAF AMD
KVQQ 242053Z 2421/2518 20010KT P6SM OVC035
      TEMPO 2421/2423 6SM SHRA OVC018
     FM242300 20012G22KT P6SM VCSH OVC035
     FM250600 23010KT P6SM SCT025 BKN040
     FM251300 26014G24KT P6SM SCT030=

USA.gov is the U.S. government's official web portal to all federal, state and local government web resources and services.